Time;durP1;ratioP1;P1;durP2;ratioP2;P2;SDS_P1;SDS_P2;PMS_P1;PMS_P2;Temp;Humidity;BMP_temperature;BMP_pressure;BME280_temperature;BME280_humidity;BME280_pressure;Samples;Min_cycle;Max_cycle;Signal;HPM_P1;HPM_P2
2023/07/06 05:49:24;;;;;;;6.82;4.72;;;17.80;99.90;;;;;;5395851;23;20070;-81
2023/07/06 05:51:51;;;;;;;10.00;4.78;;;17.90;99.90;;;;;;4851067;29;20046;-82
2023/07/06 05:54:17;;;;;;;7.32;4.70;;;18.00;99.90;;;;;;4835005;29;20071;-82
2023/07/06 05:56:46;;;;;;;9.05;4.78;;;18.10;99.90;;;;;;4852272;29;20057;-81
2023/07/06 05:59:14;;;;;;;8.13;5.10;;;18.20;99.90;;;;;;4851309;29;20046;-81
2023/07/06 06:01:41;;;;;;;6.38;4.53;;;18.30;99.90;;;;;;4851162;29;20054;-82
2023/07/06 06:04:08;;;;;;;7.07;4.95;;;18.40;99.90;;;;;;4832778;29;20042;-80
2023/07/06 06:06:46;;;;;;;8.65;5.28;;;18.50;99.90;;;;;;4845258;29;20539;-79
2023/07/06 06:09:13;;;;;;;7.57;4.78;;;18.70;99.90;;;;;;4848970;29;20117;-82
2023/07/06 06:11:40;;;;;;;8.07;5.03;;;18.70;99.90;;;;;;4848807;29;20053;-81
2023/07/06 06:14:08;;;;;;;9.23;4.78;;;18.90;99.90;;;;;;4849347;29;20049;-82
2023/07/06 06:16:35;;;;;;;6.35;4.32;;;19.00;99.90;;;;;;4849289;29;20086;-81
2023/07/06 06:19:02;;;;;;;7.00;4.55;;;19.10;99.90;;;;;;4848432;29;20105;-82
2023/07/06 06:21:30;;;;;;;8.85;4.40;;;19.20;99.90;;;;;;4849068;29;20130;-81
2023/07/06 06:23:57;;;;;;;6.72;4.30;;;19.30;99.90;;;;;;4849248;29;20053;-81
2023/07/06 06:26:25;;;;;;;8.07;5.03;;;19.40;99.90;;;;;;4848604;29;20057;-81
2023/07/06 06:28:57;;;;;;;7.22;5.03;;;19.50;99.90;;;;;;4849479;29;20050;-82
2023/07/06 06:31:25;;;;;;;6.80;4.67;;;19.60;99.90;;;;;;4826358;29;20086;-82
2023/07/06 06:33:51;;;;;;;6.90;4.65;;;19.70;99.90;;;;;;4849545;29;20706;-81
2023/07/06 06:36:19;;;;;;;12.55;5.25;;;19.80;99.90;;;;;;4834877;29;20061;-81
2023/07/06 06:38:46;;;;;;;12.35;5.07;;;19.90;99.90;;;;;;4852237;29;20079;-81
2023/07/06 06:41:12;;;;;;;9.05;5.15;;;19.90;99.90;;;;;;4848733;29;20082;-80
2023/07/06 06:43:44;;;;;;;7.28;4.90;;;19.80;99.90;;;;;;4832040;29;20106;-81
2023/07/06 06:46:13;;;;;;;6.22;5.00;;;19.80;99.90;;;;;;4848632;29;20114;-81
2023/07/06 06:48:40;;;;;;;7.13;4.68;;;19.70;99.90;;;;;;4831159;29;20053;-81
2023/07/06 06:51:09;;;;;;;7.00;4.40;;;19.60;99.90;;;;;;4830444;29;20058;-81
2023/07/06 06:53:39;;;;;;;6.57;4.45;;;19.60;99.90;;;;;;4845396;29;20086;-82
2023/07/06 06:56:08;;;;;;;7.30;4.75;;;19.60;99.90;;;;;;4846417;29;20084;-82
2023/07/06 06:58:35;;;;;;;7.57;5.15;;;19.70;99.90;;;;;;4845836;29;20498;-81
2023/07/06 07:01:04;;;;;;;8.23;5.30;;;19.80;99.90;;;;;;4847111;29;20056;-83
2023/07/06 07:03:31;;;;;;;9.68;5.43;;;20.00;99.90;;;;;;4847534;29;20137;-83
2023/07/06 07:06:12;;;;;;;9.73;5.22;;;20.00;99.90;;;;;;4847333;29;20428;-79
2023/07/06 07:08:42;;;;;;;6.82;5.28;;;20.10;99.90;;;;;;4846776;29;20081;-81
2023/07/06 07:11:09;;;;;;;9.25;5.35;;;20.10;99.90;;;;;;4846483;29;20053;-81
2023/07/06 07:13:51;;;;;;;10.05;5.38;;;20.10;99.90;;;;;;4831834;29;20080;-81
2023/07/06 07:16:19;;;;;;;9.25;5.00;;;20.10;99.90;;;;;;4845279;29;20053;-81
2023/07/06 07:18:46;;;;;;;8.20;4.55;;;20.00;99.90;;;;;;4847728;29;20050;-81
2023/07/06 07:21:14;;;;;;;6.28;5.13;;;19.90;99.90;;;;;;4852571;29;20492;-82
2023/07/06 07:23:43;;;;;;;8.18;4.95;;;19.70;99.90;;;;;;4835803;29;20062;-82
2023/07/06 07:26:13;;;;;;;14.70;6.33;;;19.40;99.90;;;;;;4835453;29;20053;-82
2023/07/06 07:28:41;;;;;;;10.68;5.13;;;19.40;99.90;;;;;;4851228;29;20305;-82
2023/07/06 07:31:11;;;;;;;8.90;5.45;;;19.30;99.90;;;;;;4851509;29;20060;-81
2023/07/06 07:33:41;;;;;;;;;;;19.30;99.90;;;;;;4852320;29;20681;-81
2023/07/06 07:36:10;;;;;;;7.97;4.93;;;19.20;99.90;;;;;;4834743;29;20034;-82
2023/07/06 07:38:37;;;;;;;10.50;5.07;;;19.20;99.90;;;;;;4833228;29;20134;-83
2023/07/06 07:41:07;;;;;;;8.07;5.03;;;19.20;99.90;;;;;;4851206;29;20116;-80
2023/07/06 07:43:36;;;;;;;8.18;4.88;;;19.10;99.90;;;;;;4851429;29;20518;-81
2023/07/06 07:46:06;;;;;;;9.98;5.25;;;19.10;99.90;;;;;;4834259;29;20050;-81
2023/07/06 07:48:38;;;;;;;10.38;4.80;;;19.10;99.90;;;;;;4849571;29;20404;-81
2023/07/06 07:51:10;;;;;;;8.13;4.95;;;19.00;99.90;;;;;;4850537;29;20050;-81
2023/07/06 07:53:39;;;;;;;8.50;4.10;;;19.00;99.90;;;;;;4848458;29;20426;-81
2023/07/06 07:56:07;;;;;;;7.13;4.00;;;19.00;99.90;;;;;;4830262;29;20519;-80
2023/07/06 07:58:36;;;;;;;8.40;4.68;;;19.00;99.90;;;;;;4848258;29;20075;-81
2023/07/06 08:01:06;;;;;;;6.57;3.83;;;19.00;99.90;;;;;;4851558;29;20045;-83
2023/07/06 08:03:33;;;;;;;4.35;3.53;;;19.00;99.90;;;;;;4830589;29;20126;-81
2023/07/06 08:06:03;;;;;;;6.63;4.45;;;19.10;99.90;;;;;;4848929;29;20074;-81
2023/07/06 08:08:34;;;;;;;5.70;4.00;;;19.20;99.90;;;;;;4831925;29;20126;-82
2023/07/06 08:11:03;;;;;;;5.03;3.15;;;19.20;99.90;;;;;;4848907;29;20113;-81
2023/07/06 08:13:31;;;;;;;5.18;2.92;;;19.30;99.90;;;;;;4834306;29;20128;-82
2023/07/06 08:15:59;;;;;;;6.32;3.33;;;19.40;99.90;;;;;;4832168;29;20045;-80
2023/07/06 08:18:26;;;;;;;5.68;3.47;;;19.40;99.90;;;;;;4832786;29;20076;-82
2023/07/06 08:20:54;;;;;;;5.43;3.45;;;19.50;99.90;;;;;;4832709;29;20045;-81
2023/07/06 08:23:49;;;;;;;5.20;3.08;;;19.60;99.90;;;;;;4845701;29;20659;-81
2023/07/06 08:26:17;;;;;;;5.22;2.92;;;19.70;99.90;;;;;;4829443;29;20552;-81
2023/07/06 08:28:46;;;;;;;5.63;3.42;;;19.90;99.90;;;;;;4833816;29;20523;-81
2023/07/06 08:31:19;;;;;;;7.30;3.15;;;20.10;99.90;;;;;;4845144;29;20093;-81
2023/07/06 08:33:47;;;;;;;6.85;2.92;;;20.10;99.90;;;;;;4829582;29;20065;-81
2023/07/06 08:36:16;;;;;;;7.60;2.95;;;20.20;99.90;;;;;;4848813;29;20054;-82
2023/07/06 08:38:43;;;;;;;10.82;3.08;;;20.20;99.90;;;;;;4847153;29;20058;-81
2023/07/06 08:41:22;;;;;;;5.63;2.42;;;20.20;99.90;;;;;;4846339;29;20060;-80
2023/07/06 08:43:50;;;;;;;7.18;2.80;;;20.20;99.90;;;;;;4846483;29;20049;-82
2023/07/06 08:46:18;;;;;;;5.80;3.10;;;20.20;99.90;;;;;;4843882;29;20049;-80
2023/07/06 08:48:45;;;;;;;4.70;2.72;;;20.20;99.90;;;;;;4845511;29;20057;-81
2023/07/06 08:51:35;;;;;;;4.90;2.90;;;20.20;99.90;;;;;;4825410;29;20050;-81
2023/07/06 08:54:04;;;;;;;;;;;20.20;99.90;;;;;;4845268;29;20053;-81
2023/07/06 08:56:36;;;;;;;6.35;3.08;;;20.20;99.90;;;;;;4827819;29;19961;-81
2023/07/06 08:59:12;;;;;;;6.80;3.30;;;20.30;99.90;;;;;;4847858;29;20129;-81
2023/07/06 09:01:41;;;;;;;5.72;2.90;;;20.30;99.90;;;;;;4846062;29;20048;-82
2023/07/06 09:04:15;;;;;;;4.50;2.90;;;20.30;99.90;;;;;;4845798;29;20046;-81
2023/07/06 09:06:50;;;;;;;5.65;2.58;;;20.30;99.90;;;;;;4847284;29;20465;-80
2023/07/06 09:09:17;;;;;;;5.45;2.42;;;20.40;99.90;;;;;;4832773;29;20117;-81
2023/07/06 09:11:45;;;;;;;6.10;3.00;;;20.40;99.90;;;;;;4847414;29;20054;-79
2023/07/06 09:14:13;;;;;;;5.60;2.80;;;20.40;99.90;;;;;;4825673;29;20481;-82
2023/07/06 09:16:48;;;;;;;3.38;2.50;;;20.40;99.90;;;;;;4845707;29;20053;-81
2023/07/06 09:19:17;;;;;;;3.35;2.25;;;20.50;99.90;;;;;;4846323;29;20054;-82
2023/07/06 09:21:48;;;;;;;3.55;2.55;;;20.50;99.90;;;;;;4846547;29;20161;-81
2023/07/06 09:24:15;;;;;;;4.38;2.63;;;20.50;99.90;;;;;;4844039;29;20094;-81
2023/07/06 09:26:44;;;;;;;5.45;2.78;;;20.50;99.90;;;;;;4848233;29;20049;-81
2023/07/06 09:29:18;;;;;;;8.70;3.10;;;20.60;99.90;;;;;;4847029;29;20065;-79
2023/07/06 09:31:47;;;;;;;5.60;2.63;;;20.60;99.90;;;;;;4846736;29;20087;-81
2023/07/06 09:34:26;;;;;;;4.18;2.15;;;20.70;99.90;;;;;;4847105;29;20569;-81
2023/07/06 09:36:54;;;;;;;4.90;2.85;;;20.70;99.90;;;;;;4845710;29;20092;-80
2023/07/06 09:39:22;;;;;;;5.22;2.67;;;20.70;99.90;;;;;;4845867;29;20061;-79
2023/07/06 09:41:51;;;;;;;4.88;2.92;;;20.70;99.90;;;;;;4845698;29;20107;-81
2023/07/06 09:44:31;;;;;;;4.18;2.92;;;20.80;99.90;;;;;;4849893;29;20088;-82
2023/07/06 09:46:59;;;;;;;4.03;2.50;;;20.80;99.90;;;;;;4848431;29;20045;-81
2023/07/06 09:49:35;;;;;;;4.38;2.55;;;20.90;99.90;;;;;;4848743;29;20057;-82
2023/07/06 09:52:10;;;;;;;6.53;2.65;;;20.90;99.90;;;;;;4791936;29;1055314;-81
2023/07/06 09:54:59;;;;;;;7.85;2.80;;;21.00;99.90;;;;;;4852685;29;20102;-81
2023/07/06 09:57:31;;;;;;;8.60;3.55;;;21.00;99.90;;;;;;4850566;29;20068;-80
2023/07/06 10:00:00;;;;;;;7.95;2.95;;;21.10;99.90;;;;;;4848385;29;20042;-82
2023/07/06 10:03:01;;;;;;;4.65;2.40;;;21.10;99.90;;;;;;4849477;29;20085;-80
2023/07/06 10:05:49;;;;;;;4.07;2.60;;;21.10;99.90;;;;;;4842978;29;20050;-81
2023/07/06 10:08:31;;;;;;;6.05;2.10;;;21.10;99.90;;;;;;4849661;29;20064;-82
2023/07/06 10:11:22;;;;;;;3.15;2.17;;;21.20;99.90;;;;;;4849006;29;20109;-83
2023/07/06 10:14:04;;;;;;;5.55;2.25;;;21.20;99.90;;;;;;4851233;29;20117;-82
2023/07/06 10:16:56;;;;;;;3.38;2.28;;;21.20;99.90;;;;;;4850102;29;20088;-80
2023/07/06 10:19:32;;;;;;;2.90;2.20;;;21.30;99.90;;;;;;4848611;29;20073;-82
2023/07/06 10:22:14;;;;;;;5.70;2.58;;;21.40;99.90;;;;;;4851961;29;20050;-82
2023/07/06 10:24:53;;;;;;;3.55;2.30;;;21.40;99.90;;;;;;4849384;29;20053;-81
2023/07/06 10:27:26;;;;;;;3.95;2.00;;;21.40;99.90;;;;;;4849838;29;20114;-82
2023/07/06 10:30:01;;;;;;;3.70;2.67;;;21.50;99.90;;;;;;4833916;29;20187;-81
2023/07/06 10:32:34;;;;;;;7.13;2.75;;;21.50;99.90;;;;;;4851065;29;20060;-80
2023/07/06 10:35:52;;;;;;;4.55;2.40;;;21.50;99.90;;;;;;4850529;29;20122;-82
2023/07/06 10:38:20;;;;;;;5.82;2.38;;;21.60;99.90;;;;;;4794743;29;20055;-82
2023/07/06 10:40:52;;;;;;;4.07;2.22;;;21.70;99.90;;;;;;4840090;29;20053;-80
2023/07/06 10:43:22;;;;;;;3.63;2.35;;;21.70;99.90;;;;;;4849183;29;20045;-81
2023/07/06 10:45:56;;;;;;;4.38;2.60;;;21.70;99.90;;;;;;4849966;29;20114;-80
2023/07/06 10:48:30;;;;;;;2.85;2.20;;;21.80;99.90;;;;;;4846877;29;20066;-82
2023/07/06 10:51:22;;;;;;;2.88;1.98;;;21.80;99.90;;;;;;4852109;29;20660;-79
2023/07/06 10:54:07;;;;;;;4.70;2.50;;;21.80;99.90;;;;;;4851477;29;20102;-80
2023/07/06 10:56:45;;;;;;;3.03;2.05;;;21.90;99.90;;;;;;4851567;29;20079;-81
2023/07/06 10:59:20;;;;;;;3.63;1.98;;;21.90;99.90;;;;;;4850107;29;20054;-82
2023/07/06 11:01:47;;;;;;;3.28;2.22;;;21.90;99.90;;;;;;4849974;29;20508;-81
2023/07/06 11:04:39;;;;;;;3.58;2.58;;;22.00;99.90;;;;;;4849797;29;20049;-81
2023/07/06 11:07:11;;;;;;;3.03;2.22;;;22.10;99.90;;;;;;4852148;29;20045;-82
2023/07/06 11:10:09;;;;;;;3.53;2.45;;;22.20;99.90;;;;;;4844239;29;20054;-82
2023/07/06 11:13:16;;;;;;;5.75;2.55;;;22.20;99.90;;;;;;4851632;29;20057;-81
2023/07/06 11:15:43;;;;;;;5.05;2.47;;;22.20;99.90;;;;;;4849809;29;20423;-81
2023/07/06 11:18:25;;;;;;;4.80;2.38;;;22.20;99.90;;;;;;4850106;29;20065;-81
2023/07/06 11:20:57;;;;;;;6.68;2.30;;;22.20;99.90;;;;;;4853576;29;20049;-81
2023/07/06 11:23:34;;;;;;;2.75;2.10;;;22.30;99.90;;;;;;4854490;29;20050;-81
2023/07/06 11:26:07;;;;;;;6.18;2.72;;;22.30;99.90;;;;;;4835120;29;20057;-82
2023/07/06 11:28:34;;;;;;;4.50;2.55;;;22.30;99.90;;;;;;4849708;29;20082;-81
2023/07/06 11:31:53;;;;;;;7.43;2.67;;;22.40;99.90;;;;;;4846383;29;20053;-81
2023/07/06 11:34:34;;;;;;;6.10;2.58;;;22.50;99.90;;;;;;4845627;29;20056;-81
2023/07/06 11:37:40;;;;;;;5.68;2.30;;;22.50;99.90;;;;;;4828762;29;20053;-79
2023/07/06 11:41:00;;;;;;;5.30;2.83;;;22.50;99.90;;;;;;4851184;29;20056;-81
2023/07/06 11:43:54;;;;;;;4.40;2.55;;;22.50;99.90;;;;;;4849477;29;20472;-82
2023/07/06 11:46:42;;;;;;;5.15;2.60;;;22.50;99.90;;;;;;4847368;29;20066;-81
2023/07/06 11:49:34;;;;;;;5.15;3.03;;;22.50;99.90;;;;;;4846129;29;20126;-81
2023/07/06 11:52:04;;;;;;;7.28;3.10;;;22.50;99.90;;;;;;4851202;29;20087;-80
2023/07/06 11:54:49;;;;;;;;;;;22.50;99.90;;;;;;4847042;29;20068;-81
2023/07/06 11:57:28;;;;;;;5.57;2.35;;;22.60;99.90;;;;;;4846500;29;19932;-80
2023/07/06 12:02:57;;;;;;;3.67;2.30;;;22.70;99.90;;;;;;4844951;29;20046;-81
2023/07/06 12:05:33;;;;;;;4.15;2.67;;;22.70;99.90;;;;;;4847220;29;20073;-82
2023/07/06 12:08:03;;;;;;;6.18;2.80;;;22.80;99.90;;;;;;4847689;29;20508;-82
2023/07/06 12:10:34;;;;;;;5.50;2.50;;;22.80;99.90;;;;;;4845506;29;20451;-81
2023/07/06 12:13:04;;;;;;;3.92;2.65;;;22.80;99.90;;;;;;4833821;29;20070;-82
2023/07/06 12:15:31;;;;;;;3.42;2.63;;;22.80;99.90;;;;;;4844883;29;20054;-81
2023/07/06 12:17:58;;;;;;;3.70;2.90;;;22.80;99.90;;;;;;4848460;29;20086;-80
2023/07/06 12:20:31;;;;;;;3.10;2.35;;;22.80;99.90;;;;;;4849331;29;20056;-82
2023/07/06 12:22:58;;;;;;;5.05;2.88;;;22.80;99.90;;;;;;4847995;29;20196;-81
2023/07/06 12:25:30;;;;;;;4.20;3.17;;;22.90;99.90;;;;;;4849961;29;20060;-80
2023/07/06 12:27:59;;;;;;;3.72;2.78;;;22.90;99.90;;;;;;4847522;29;20126;-82
2023/07/06 12:30:33;;;;;;;3.35;2.60;;;22.90;99.90;;;;;;4848354;29;20058;-82
2023/07/06 12:33:04;;;;;;;4.75;2.53;;;22.90;99.90;;;;;;4835071;29;20137;-82
2023/07/06 12:35:33;;;;;;;;;;;23.00;99.90;;;;;;4855134;23;20076;-77
2023/07/06 12:38:03;;;;;;;4.60;2.70;;;23.00;99.90;;;;;;4831297;29;19925;-77
2023/07/06 12:40:32;;;;;;;;;;;23.00;99.90;;;;;;4834831;29;20061;-77
2023/07/06 12:42:59;;;;;;;6.80;2.70;;;23.00;99.90;;;;;;4837726;29;19960;-76
2023/07/06 12:45:29;;;;;;;4.15;2.85;;;23.10;99.90;;;;;;4829219;29;20050;-77
2023/07/06 12:47:57;;;;;;;;;;;23.10;99.90;;;;;;4848281;29;20527;-76
2023/07/06 12:50:29;;;;;;;4.80;2.97;;;23.10;99.90;;;;;;4838571;29;20326;-77
2023/07/06 12:53:05;;;;;;;3.72;2.53;;;23.10;99.90;;;;;;4833733;29;20126;-77
2023/07/06 12:55:32;;;;;;;4.22;2.95;;;23.20;99.90;;;;;;4835502;29;20088;-77
2023/07/06 12:58:34;;;;;;;2.83;2.35;;;23.20;99.90;;;;;;4835145;29;20148;-77
2023/07/06 13:01:11;;;;;;;4.15;2.58;;;23.20;99.90;;;;;;4830657;29;20136;-77
2023/07/06 13:04:08;;;;;;;4.63;2.67;;;23.20;99.90;;;;;;4831104;29;20073;-76
2023/07/06 13:06:43;;;;;;;4.25;2.70;;;23.20;99.90;;;;;;4824006;29;20063;-76
2023/07/06 13:09:20;;;;;;;4.53;2.97;;;23.30;99.90;;;;;;4833527;29;20045;-77
2023/07/06 13:11:52;;;;;;;3.65;2.88;;;23.30;99.90;;;;;;4836000;29;20508;-77
2023/07/06 13:14:21;;;;;;;4.97;2.83;;;23.40;99.90;;;;;;4832633;29;20420;-77
2023/07/06 13:16:56;;;;;;;5.30;2.45;;;23.40;99.90;;;;;;4835552;29;20083;-77
2023/07/06 13:19:23;;;;;;;3.58;2.80;;;23.40;99.90;;;;;;4830799;29;20058;-77
2023/07/06 13:21:53;;;;;;;3.90;3.03;;;23.50;99.90;;;;;;4834833;29;20427;-77
2023/07/06 13:24:21;;;;;;;4.68;3.50;;;23.60;99.90;;;;;;4833426;29;20074;-77
2023/07/06 13:26:52;;;;;;;3.80;2.50;;;23.60;99.90;;;;;;4833902;29;20111;-77
2023/07/06 13:29:22;;;;;;;5.53;3.08;;;23.60;99.90;;;;;;4815933;29;20522;-77
2023/07/06 13:31:48;;;;;;;5.38;3.15;;;23.60;99.90;;;;;;4831250;29;20115;-77
2023/07/06 13:34:23;;;;;;;5.70;3.38;;;23.70;99.90;;;;;;4833406;29;20136;-77
2023/07/06 13:36:51;;;;;;;4.63;2.92;;;23.70;99.90;;;;;;4829645;29;20133;-76
2023/07/06 13:39:18;;;;;;;5.00;2.95;;;23.70;99.90;;;;;;4833475;29;20054;-76
2023/07/06 13:41:44;;;;;;;5.53;2.90;;;23.70;99.90;;;;;;4833726;29;20099;-76
2023/07/06 13:44:13;;;;;;;5.35;3.10;;;23.80;99.90;;;;;;4829962;29;20079;-76
2023/07/06 13:46:41;;;;;;;8.95;2.67;;;23.90;99.90;;;;;;4828243;29;20057;-76
2023/07/06 13:49:08;;;;;;;5.13;3.15;;;23.90;99.90;;;;;;4835337;29;20184;-76
2023/07/06 13:51:35;;;;;;;4.10;2.90;;;23.80;99.90;;;;;;4835403;29;20077;-76
2023/07/06 13:54:02;;;;;;;5.72;2.55;;;23.90;99.90;;;;;;4839342;29;20594;-76
2023/07/06 13:56:29;;;;;;;5.72;2.90;;;23.90;99.80;;;;;;4837063;29;20518;-76
2023/07/06 13:58:56;;;;;;;4.45;3.10;;;23.90;99.90;;;;;;4832773;29;20060;-76
2023/07/06 14:01:25;;;;;;;4.60;3.00;;;23.90;99.90;;;;;;4834064;29;20132;-76
2023/07/06 14:03:54;;;;;;;4.70;3.25;;;23.90;99.90;;;;;;4837951;29;20502;-76
2023/07/06 14:06:21;;;;;;;4.63;2.72;;;24.00;99.90;;;;;;4835498;29;20042;-76
2023/07/06 14:08:48;;;;;;;5.45;3.00;;;24.00;99.90;;;;;;4838343;29;20061;-76
2023/07/06 14:11:15;;;;;;;6.90;3.30;;;24.00;99.80;;;;;;4821246;29;20108;-76
2023/07/06 14:13:43;;;;;;;5.45;2.88;;;24.00;99.90;;;;;;4845670;29;20078;-76
2023/07/06 14:16:12;;;;;;;9.02;3.40;;;24.10;99.90;;;;;;4831862;29;20060;-76
2023/07/06 14:18:40;;;;;;;5.32;3.05;;;24.10;99.90;;;;;;4834115;29;20137;-76
2023/07/06 14:21:06;;;;;;;5.63;3.75;;;24.10;99.90;;;;;;4820114;29;20050;-75
2023/07/06 14:23:33;;;;;;;6.78;3.00;;;24.20;99.90;;;;;;4836144;29;20154;-76
2023/07/06 14:26:01;;;;;;;5.05;3.05;;;24.20;99.50;;;;;;4834507;29;20049;-76
2023/07/06 14:28:30;;;;;;;4.78;3.13;;;24.20;99.50;;;;;;4837963;29;20110;-75
2023/07/06 14:31:02;;;;;;;6.32;3.35;;;24.20;99.90;;;;;;4839287;29;20053;-76
2023/07/06 14:33:30;;;;;;;5.03;3.08;;;24.30;99.70;;;;;;4838219;29;20058;-76
2023/07/06 14:35:57;;;;;;;4.80;3.30;;;24.30;99.90;;;;;;4842581;29;20062;-76
2023/07/06 14:38:24;;;;;;;5.88;3.35;;;24.30;99.10;;;;;;4836751;29;20079;-76
2023/07/06 14:40:51;;;;;;;6.35;3.88;;;24.30;98.70;;;;;;4837695;29;20046;-77
2023/07/06 14:43:18;;;;;;;9.27;4.10;;;24.40;99.40;;;;;;4838175;29;20056;-75
2023/07/06 14:45:45;;;;;;;4.95;3.80;;;24.40;99.00;;;;;;4839392;29;20053;-76
2023/07/06 14:48:13;;;;;;;4.38;3.20;;;24.40;98.90;;;;;;4838451;29;20098;-76
2023/07/06 14:50:40;;;;;;;5.60;3.60;;;24.40;99.40;;;;;;4843211;29;20049;-75
2023/07/06 14:53:09;;;;;;;5.68;4.03;;;24.50;99.60;;;;;;4840011;29;21305;-76
2023/07/06 14:55:36;;;;;;;5.38;3.20;;;24.50;99.50;;;;;;4840803;29;20049;-76
2023/07/06 14:58:04;;;;;;;4.65;3.45;;;24.50;99.20;;;;;;4839749;29;20076;-75
2023/07/06 15:00:32;;;;;;;4.47;3.28;;;24.50;98.80;;;;;;4838584;29;20050;-77
2023/07/06 15:03:03;;;;;;;4.90;3.13;;;24.50;98.40;;;;;;4843075;29;20093;-76
2023/07/06 15:05:32;;;;;;;5.45;3.38;;;24.50;98.50;;;;;;4839368;29;20047;-76
2023/07/06 15:08:00;;;;;;;8.27;4.82;;;24.50;98.70;;;;;;4845963;29;20046;-75
2023/07/06 15:10:27;;;;;;;7.13;3.42;;;24.50;98.30;;;;;;4833178;29;20050;-75
2023/07/06 15:12:54;;;;;;;6.80;3.67;;;24.50;98.30;;;;;;4839852;29;20464;-76
2023/07/06 15:15:20;;;;;;;4.15;2.92;;;24.50;98.60;;;;;;4833626;29;20137;-75
2023/07/06 15:17:47;;;;;;;4.53;3.20;;;24.50;98.90;;;;;;4836416;29;20198;-75
2023/07/06 15:20:15;;;;;;;6.88;3.22;;;24.50;98.00;;;;;;4840631;29;20050;-75
2023/07/06 15:22:42;;;;;;;7.22;3.38;;;24.50;98.50;;;;;;4835282;29;20409;-75
2023/07/06 15:25:09;;;;;;;6.07;3.70;;;24.50;98.50;;;;;;4835003;29;20503;-77
2023/07/06 15:27:36;;;;;;;7.03;4.15;;;24.50;98.70;;;;;;4834779;29;20537;-77
2023/07/06 15:30:03;;;;;;;3.95;3.28;;;24.50;98.60;;;;;;4843671;29;20145;-77
2023/07/06 15:32:30;;;;;;;6.00;3.80;;;24.50;99.00;;;;;;4836088;29;20053;-75
2023/07/06 15:34:57;;;;;;;5.65;3.92;;;24.60;99.60;;;;;;4836267;29;20095;-75
2023/07/06 15:37:28;;;;;;;6.60;3.95;;;24.60;98.20;;;;;;4821415;29;20727;-75
2023/07/06 15:39:57;;;;;;;6.60;3.67;;;24.60;98.60;;;;;;4836714;29;20065;-76
2023/07/06 15:42:26;;;;;;;6.10;4.07;;;24.70;98.80;;;;;;4840828;29;20058;-78
2023/07/06 15:44:53;;;;;;;5.82;3.85;;;24.70;98.10;;;;;;4833234;29;20134;-76
2023/07/06 15:47:21;;;;;;;5.13;3.88;;;24.70;98.70;;;;;;4842161;29;20419;-78
2023/07/06 15:49:48;;;;;;;5.25;3.70;;;24.70;98.20;;;;;;4840012;29;20673;-77
2023/07/06 15:52:15;;;;;;;7.47;4.20;;;24.70;98.30;;;;;;4835004;29;20046;-76
2023/07/06 15:54:42;;;;;;;6.63;3.60;;;24.70;97.80;;;;;;4831532;29;20439;-77
2023/07/06 15:57:08;;;;;;;5.63;3.50;;;24.70;98.70;;;;;;4834351;29;20057;-77
2023/07/06 15:59:35;;;;;;;6.68;3.03;;;24.70;98.10;;;;;;4833906;29;20528;-76
2023/07/06 16:02:02;;;;;;;7.68;3.30;;;24.70;98.30;;;;;;4833545;29;20050;-76
2023/07/06 16:04:29;;;;;;;6.05;3.75;;;24.60;98.90;;;;;;4839523;29;20058;-77
2023/07/06 16:06:56;;;;;;;4.93;3.03;;;24.70;98.20;;;;;;4837935;29;20803;-77
2023/07/06 16:09:23;;;;;;;4.90;3.20;;;24.70;98.50;;;;;;4828252;29;20548;-77
2023/07/06 16:11:49;;;;;;;3.40;2.58;;;24.70;98.20;;;;;;4839542;29;20140;-76
2023/07/06 16:14:16;;;;;;;4.78;3.10;;;24.70;98.10;;;;;;4835268;29;20118;-77
2023/07/06 16:16:45;;;;;;;3.58;2.85;;;24.70;98.40;;;;;;4823596;29;20050;-77
2023/07/06 16:19:13;;;;;;;3.42;2.60;;;24.70;98.30;;;;;;4833773;29;20080;-75
2023/07/06 16:21:40;;;;;;;4.18;3.03;;;24.70;98.30;;;;;;4840815;29;20522;-76
2023/07/06 16:24:08;;;;;;;4.20;3.05;;;24.70;99.00;;;;;;4835533;29;20049;-76
2023/07/06 16:26:35;;;;;;;4.63;3.40;;;24.70;99.00;;;;;;4832168;29;20133;-76
2023/07/06 16:29:02;;;;;;;4.28;2.83;;;24.70;98.50;;;;;;4830144;29;20499;-75
2023/07/06 16:31:28;;;;;;;6.22;2.60;;;24.70;98.60;;;;;;4839650;29;20054;-75
2023/07/06 16:33:59;;;;;;;6.22;2.67;;;24.70;98.60;;;;;;4838292;29;20137;-76
2023/07/06 16:36:25;;;;;;;3.50;2.50;;;24.70;98.60;;;;;;4838627;29;20054;-75
2023/07/06 16:38:52;;;;;;;3.70;2.70;;;24.70;99.00;;;;;;4840793;29;20110;-76
2023/07/06 16:41:19;;;;;;;4.55;1.90;;;24.70;98.70;;;;;;4842085;29;20130;-76
2023/07/06 16:43:46;;;;;;;5.03;2.15;;;24.70;99.00;;;;;;4836382;29;20050;-76
2023/07/06 16:46:13;;;;;;;3.95;2.38;;;24.70;98.60;;;;;;4820263;29;20045;-76
2023/07/06 16:48:41;;;;;;;6.03;2.60;;;24.70;98.80;;;;;;4838301;29;20050;-75
2023/07/06 16:51:08;;;;;;;5.07;2.75;;;24.80;98.80;;;;;;4834259;29;20046;-76
2023/07/06 16:53:35;;;;;;;4.15;2.58;;;24.70;98.60;;;;;;4828165;29;20054;-75
2023/07/06 16:56:02;;;;;;;3.63;2.40;;;24.70;98.80;;;;;;4828643;29;20413;-75
2023/07/06 16:58:30;;;;;;;3.95;2.40;;;24.70;98.50;;;;;;4836375;29;20058;-76
2023/07/06 17:01:05;;;;;;;3.13;2.22;;;24.70;99.00;;;;;;4839195;29;20106;-76
2023/07/06 17:03:33;;;;;;;6.32;2.40;;;24.70;98.70;;;;;;4814070;29;20057;-76
2023/07/06 17:06:00;;;;;;;4.72;2.47;;;24.70;98.50;;;;;;4834337;29;20054;-75
2023/07/06 17:08:28;;;;;;;6.43;2.35;;;24.70;98.80;;;;;;4831151;29;20088;-76
2023/07/06 17:11:00;;;;;;;3.90;2.70;;;24.60;98.40;;;;;;4826098;29;20137;-75
2023/07/06 17:13:27;;;;;;;5.03;2.20;;;24.60;98.80;;;;;;4832287;29;20060;-76
2023/07/06 17:15:56;;;;;;;3.05;2.30;;;24.60;98.50;;;;;;4838022;29;20050;-75
2023/07/06 17:18:23;;;;;;;3.95;2.45;;;24.60;98.80;;;;;;4831148;29;20056;-75
2023/07/06 17:20:56;;;;;;;6.47;2.63;;;24.50;98.10;;;;;;4833726;29;20050;-77
2023/07/06 17:23:23;;;;;;;4.20;2.22;;;24.50;98.90;;;;;;4829132;29;20082;-75
2023/07/06 17:25:50;;;;;;;7.22;2.10;;;24.50;98.50;;;;;;4826910;29;20074;-75
2023/07/06 17:28:16;;;;;;;3.72;2.70;;;24.50;99.00;;;;;;4831229;29;20534;-76
2023/07/06 17:30:43;;;;;;;5.47;2.65;;;24.40;99.60;;;;;;4836973;29;20077;-76
2023/07/06 17:33:10;;;;;;;5.15;2.72;;;24.40;98.40;;;;;;4821409;29;20085;-78
2023/07/06 17:35:37;;;;;;;3.95;2.88;;;24.40;98.10;;;;;;4830488;29;20133;-76
2023/07/06 17:38:03;;;;;;;3.30;2.70;;;24.40;98.50;;;;;;4832650;29;20090;-75
2023/07/06 17:40:30;;;;;;;4.05;2.25;;;24.40;98.40;;;;;;4830968;29;20496;-76
2023/07/06 17:42:57;;;;;;;5.50;2.80;;;24.30;98.50;;;;;;4833183;29;20511;-77
2023/07/06 17:45:24;;;;;;;3.53;2.75;;;24.30;98.60;;;;;;4817742;29;20125;-77
2023/07/06 17:47:50;;;;;;;5.13;2.33;;;24.20;98.50;;;;;;4832149;29;20054;-77
2023/07/06 17:50:17;;;;;;;4.20;2.65;;;24.20;99.10;;;;;;4831182;29;20481;-77
2023/07/06 17:52:44;;;;;;;5.47;2.65;;;24.10;99.00;;;;;;4833487;29;20110;-77
2023/07/06 17:55:11;;;;;;;3.17;2.33;;;24.10;99.40;;;;;;4827625;29;20057;-77
2023/07/06 17:57:37;;;;;;;6.25;2.70;;;24.10;99.30;;;;;;4835082;29;20055;-77
2023/07/06 18:00:05;;;;;;;4.88;2.10;;;24.00;99.30;;;;;;4835809;29;20116;-77
2023/07/06 18:02:32;;;;;;;3.92;2.42;;;24.00;99.90;;;;;;4834617;29;20055;-77
2023/07/06 18:04:58;;;;;;;7.43;2.42;;;24.00;99.90;;;;;;4836051;29;20065;-77
2023/07/06 18:07:25;;;;;;;3.25;1.92;;;24.00;99.90;;;;;;4842153;29;20050;-76
2023/07/06 18:09:52;;;;;;;3.25;2.42;;;23.90;99.90;;;;;;4834882;29;20088;-75
2023/07/06 18:12:19;;;;;;;4.05;2.40;;;23.90;99.90;;;;;;4841579;29;20053;-76
2023/07/06 18:14:45;;;;;;;4.70;2.40;;;23.90;99.90;;;;;;4842042;29;20049;-75
2023/07/06 18:17:12;;;;;;;4.18;2.58;;;23.90;99.90;;;;;;4848197;29;20097;-77
2023/07/06 18:19:39;;;;;;;4.05;2.50;;;23.80;99.90;;;;;;4836244;29;20161;-77
2023/07/06 18:22:05;;;;;;;4.80;2.88;;;23.80;99.90;;;;;;4841010;29;20092;-77
2023/07/06 18:24:32;;;;;;;6.18;2.70;;;23.80;99.90;;;;;;4833042;29;20089;-76
2023/07/06 18:26:59;;;;;;;3.97;2.17;;;23.70;99.90;;;;;;4840300;29;20089;-77
2023/07/06 18:29:26;;;;;;;4.55;2.75;;;23.70;99.90;;;;;;4839292;29;20155;-77
2023/07/06 18:31:52;;;;;;;4.75;2.70;;;23.60;99.90;;;;;;4838917;29;20054;-77
2023/07/06 18:34:19;;;;;;;5.97;2.60;;;23.60;99.90;;;;;;4835910;29;20434;-77
2023/07/06 18:36:46;;;;;;;4.40;2.30;;;23.50;99.90;;;;;;4839335;29;20063;-77
2023/07/06 18:39:13;;;;;;;5.00;3.10;;;23.50;99.90;;;;;;4837228;29;20061;-76
2023/07/06 18:41:39;;;;;;;11.35;2.50;;;23.50;99.90;;;;;;4838463;29;20054;-77
2023/07/06 18:44:07;;;;;;;5.28;2.47;;;23.50;99.90;;;;;;4843065;29;20056;-77
2023/07/06 18:46:34;;;;;;;8.85;2.72;;;23.40;99.90;;;;;;4839200;29;20046;-76
2023/07/06 18:49:01;;;;;;;4.82;2.85;;;23.40;99.90;;;;;;4831799;29;20058;-76
2023/07/06 18:51:27;;;;;;;7.57;3.13;;;23.30;99.90;;;;;;4838790;29;20061;-76
2023/07/06 18:53:54;;;;;;;5.95;2.90;;;23.30;99.90;;;;;;4835688;29;20053;-76
2023/07/06 18:56:21;;;;;;;4.10;3.05;;;23.30;99.90;;;;;;4845734;29;20076;-76
2023/07/06 18:58:48;;;;;;;6.30;2.92;;;23.20;99.90;;;;;;4838287;29;20427;-76